Howard City, MI (49329)

4:25 PM EDT on June 28, 2017 (GMT -0400)
Ensley Center - Snow Farm | | Change Station

Elev 982 ft 43.36 °N, 85.62 °W | Updated 15 seconds ago

Rain
Rain
69.4 °F
Feels Like 69.4 °F
N
5.0
Wind Variable Wind from South

Today
High -- | Low -- °F
--% Chance of Precip.
Yesterday
High -- | Low -- °F
Precip. -- in
Pressure 29.92 in
Visibility 10.0 miles
Clouds Scattered Clouds 5000 ft
Mostly Cloudy 7000 ft
Overcast 8000 ft
Dew Point 61 °F
Humidity 76%
Rainfall 0.00 in
Snow Depth Not available.
6:03 AM 9:26 PM
Waxing Crescent, 28% visible
METAR KRQB 282015Z AUTO 20008G17KT 10SM -RA SCT050 BKN070 OVC080 20/13 A2992 RMK AO2 T01980126
Pressure 29.92 in
Visibility 10.0 miles
Clouds Scattered Clouds 5000 ft
Mostly Cloudy 7000 ft
Overcast 8000 ft
Dew Point 61 °F
Humidity 76%
Rainfall 0.00 in
Snow Depth Not available.
6:03 AM 9:26 PM
Waxing Crescent, 28% visible
METAR KRQB 282015Z AUTO 20008G17KT 10SM -RA SCT050 BKN070 OVC080 20/13 A2992 RMK AO2 T01980126

Get Severe Weather Alerts

Thanks for signing up!

Be on the lookout for a verification email in your inbox.

You'll start receiving the daily forecast at 6 AM.

×

10-Day Weather Forecast

Almanac

Astronomy

Jun. 28, 2017 Rise Set
Actual Time
Civil Twilight
Nautical Twilight
Astronomical Twilight
Moon
Length of Visible Light
Length of Day
Tomorrow will be .
, % of the Moon is Illuminated

Today's Extremes

State Highs State Lows

Community

WunderPhotos

Category 6

Welcome to Category 6. This is the collective home for Weather Underground's featured writeups by Dr. Jeff Masters (right), Bob Henson (left), Chris Burt, and other regular contributors.

Nearby

Air Quality

  Air Quality AQ Index Pollutant
Not available.

Snow Depth

Station Depth Elevation

Earthquake Activity

City Distance Mag. Time & Date
Minimum magnitude displayed is 2.5.

Coastal Water Temperatures

Place Temperature

Stations

Nearby Weather Stations

Station Location Temp. Windchill Dew Point Humidity Wind Precip. Elev Updated Type
                   

Watches & Warnings

There are currently no watches in effect.